createdAt,value
2023-03-15T00:02:08.255Z,97410.36
2023-03-15T00:04:37.682Z,97413.10
2023-03-15T00:07:07.540Z,97415.73
2023-03-15T00:09:36.748Z,97418.91
2023-03-15T00:12:06.335Z,97419.16
2023-03-15T00:14:35.296Z,97419.52
2023-03-15T00:17:04.587Z,97417.73
2023-03-15T00:19:33.903Z,97424.32
2023-03-15T00:22:03.133Z,97419.61
2023-03-15T00:24:31.824Z,97421.52
2023-03-15T00:27:00.710Z,97421.73
2023-03-15T00:29:29.888Z,97415.85
2023-03-15T00:31:59.752Z,97413.67
2023-03-15T00:34:29.124Z,97412.91
2023-03-15T00:36:58.298Z,97413.92
2023-03-15T00:39:27.631Z,97406.20
2023-03-15T00:41:59.842Z,97403.94
2023-03-15T00:44:29.486Z,97404.54
2023-03-15T00:46:58.500Z,97399.69
2023-03-15T00:49:27.559Z,97403.39
2023-03-15T00:51:56.464Z,97407.84
2023-03-15T00:54:25.551Z,97410.35
2023-03-15T00:56:54.929Z,97411.75
2023-03-15T00:59:23.945Z,97410.25
2023-03-15T01:01:53.021Z,97410.94
2023-03-15T01:04:21.924Z,97412.10
2023-03-15T01:06:50.856Z,97412.45
2023-03-15T01:09:19.983Z,97414.83
2023-03-15T01:11:48.792Z,97417.60
2023-03-15T01:14:19.392Z,97416.95
2023-03-15T01:16:48.504Z,97420.75
2023-03-15T01:19:17.847Z,97420.85
2023-03-15T01:21:48.323Z,97416.73
2023-03-15T01:24:17.487Z,97423.59
2023-03-15T01:26:46.911Z,97419.52
2023-03-15T01:29:18.471Z,97419.87
2023-03-15T01:31:47.443Z,97421.44
2023-03-15T01:34:16.425Z,97415.73
2023-03-15T01:36:45.179Z,97414.03
2023-03-15T01:39:14.163Z,97418.02
2023-03-15T01:41:43.610Z,97422.70
2023-03-15T01:44:17.680Z,97423.50
2023-03-15T01:46:46.992Z,97420.61
2023-03-15T01:49:31.918Z,97422.20
2023-03-15T01:52:13.351Z,97420.15
2023-03-15T01:54:47.712Z,97420.80
2023-03-15T01:57:23.576Z,97418.98
2023-03-15T02:00:13.987Z,97413.39
2023-03-15T02:02:48.542Z,97409.20
2023-03-15T02:05:24.931Z,97403.42
2023-03-15T02:07:54.921Z,97406.40
2023-03-15T02:10:43.132Z,97414.08
2023-03-15T02:13:17.516Z,97417.86
2023-03-15T02:15:49.524Z,97420.77
2023-03-15T02:18:18.238Z,97429.89
2023-03-15T02:21:09.144Z,97437.03
2023-03-15T02:23:38.140Z,97438.66
2023-03-15T02:26:49.129Z,97440.55
2023-03-15T02:29:18.023Z,97450.45
2023-03-15T02:31:46.903Z,97445.84
2023-03-15T02:34:16.118Z,97454.58
2023-03-15T02:36:44.991Z,97452.92
2023-03-15T02:39:16.806Z,97458.30
2023-03-15T02:41:57.770Z,97462.48
2023-03-15T02:44:36.544Z,97462.71
2023-03-15T02:47:09.899Z,97470.06
2023-03-15T02:49:43.849Z,97471.48
2023-03-15T02:52:14.391Z,97472.91
2023-03-15T02:54:46.150Z,97470.36
2023-03-15T02:57:17.273Z,97471.12
2023-03-15T02:59:46.215Z,97475.92
2023-03-15T03:02:15.738Z,97477.60
2023-03-15T03:04:44.591Z,97475.80
2023-03-15T03:07:13.607Z,97471.13
2023-03-15T03:09:42.978Z,97467.71
2023-03-15T03:12:11.851Z,97468.08
2023-03-15T03:14:43.733Z,97467.30
2023-03-15T03:17:12.873Z,97473.44
2023-03-15T03:19:41.617Z,97478.05
2023-03-15T03:22:13.592Z,97480.19
2023-03-15T03:24:46.364Z,97480.48
2023-03-15T03:27:16.189Z,97479.61
2023-03-15T03:29:45.249Z,97479.52
2023-03-15T03:32:14.278Z,97475.04
2023-03-15T03:34:48.981Z,97478.52
2023-03-15T03:37:22.123Z,97483.30
2023-03-15T03:39:53.303Z,97482.06
2023-03-15T03:42:22.270Z,97483.61
2023-03-15T03:44:51.468Z,97484.14
2023-03-15T03:47:20.917Z,97481.25
2023-03-15T03:49:49.812Z,97477.77
2023-03-15T03:52:18.807Z,97477.65
2023-03-15T03:54:47.945Z,97480.30
2023-03-15T03:57:16.985Z,97487.18
2023-03-15T03:59:45.954Z,97489.70
2023-03-15T04:02:15.248Z,97489.11
2023-03-15T04:04:44.340Z,97478.27
2023-03-15T04:07:14.519Z,97481.14
2023-03-15T04:09:44.289Z,97473.37
2023-03-15T04:12:13.643Z,97470.20
2023-03-15T04:14:42.522Z,97481.42
2023-03-15T04:17:11.976Z,97479.44
2023-03-15T04:19:40.870Z,97483.80
2023-03-15T04:22:09.680Z,97494.77
2023-03-15T04:24:40.160Z,97503.04
2023-03-15T04:27:09.345Z,97513.94
2023-03-15T04:29:38.022Z,97512.89
2023-03-15T04:32:07.156Z,97508.91
2023-03-15T04:34:39.356Z,97510.23
2023-03-15T04:37:08.151Z,97515.29
2023-03-15T04:39:36.889Z,97524.65
2023-03-15T04:42:05.789Z,97531.61
2023-03-15T04:44:34.655Z,97533.34
2023-03-15T04:47:03.656Z,97535.30
2023-03-15T04:49:32.384Z,97537.48
2023-03-15T04:52:01.383Z,97541.29
2023-03-15T04:54:30.964Z,97549.04
2023-03-15T04:56:59.836Z,97552.98
2023-03-15T04:59:28.631Z,97554.52
2023-03-15T05:01:57.731Z,97560.54
2023-03-15T05:04:26.191Z,97565.58
2023-03-15T05:06:55.009Z,97568.79
2023-03-15T05:09:23.988Z,97568.52
2023-03-15T05:11:52.556Z,97570.08
2023-03-15T05:14:21.394Z,97574.27
2023-03-15T05:16:52.744Z,97571.65
2023-03-15T05:19:22.312Z,97571.65
2023-03-15T05:21:51.185Z,97573.41
2023-03-15T05:24:19.949Z,97579.55
2023-03-15T05:26:48.661Z,97581.98
2023-03-15T05:29:17.586Z,97580.64
2023-03-15T05:31:46.572Z,97588.21
2023-03-15T05:34:15.873Z,97596.78
2023-03-15T05:36:44.980Z,97602.10
2023-03-15T05:39:17.124Z,97610.89
2023-03-15T05:41:45.869Z,97622.71
2023-03-15T05:44:14.872Z,97635.45
2023-03-15T05:46:43.862Z,97637.27
2023-03-15T05:49:12.645Z,97637.81
2023-03-15T05:51:42.041Z,97644.66
2023-03-15T05:54:11.511Z,97645.87
2023-03-15T05:56:40.808Z,97645.21
2023-03-15T05:59:09.661Z,97650.70
2023-03-15T06:01:38.887Z,97649.23
2023-03-15T06:04:07.993Z,97650.64
2023-03-15T06:06:36.950Z,97650.39
2023-03-15T06:09:06.217Z,97646.55
2023-03-15T06:11:35.425Z,97650.66
2023-03-15T06:14:05.092Z,97651.92
2023-03-15T06:16:34.562Z,97656.98
2023-03-15T06:19:04.181Z,97657.83
2023-03-15T06:21:33.597Z,97659.55
2023-03-15T06:24:02.805Z,97661.41
2023-03-15T06:26:32.125Z,97671.92
2023-03-15T06:29:01.423Z,97677.74
2023-03-15T06:31:30.758Z,97678.48
2023-03-15T06:34:00.537Z,97677.95
2023-03-15T06:36:29.818Z,97678.97
2023-03-15T06:38:59.137Z,97680.05
2023-03-15T06:41:28.588Z,97689.73
2023-03-15T06:43:58.231Z,97694.08
2023-03-15T06:46:27.898Z,97698.95
2023-03-15T06:48:57.137Z,97701.20
2023-03-15T06:51:26.085Z,97702.48
2023-03-15T06:53:55.225Z,97702.15
2023-03-15T06:56:24.525Z,97709.61
2023-03-15T06:58:53.809Z,97712.63
2023-03-15T07:01:23.130Z,97709.91
2023-03-15T07:03:52.506Z,97712.26
2023-03-15T07:06:21.637Z,97709.83
2023-03-15T07:08:50.533Z,97714.13
2023-03-15T07:11:19.605Z,97714.66
2023-03-15T07:13:48.447Z,97719.06
2023-03-15T07:16:17.538Z,97732.83
2023-03-15T07:18:46.631Z,97734.38
2023-03-15T07:21:15.841Z,97733.04
2023-03-15T07:23:45.024Z,97736.27
2023-03-15T07:26:13.987Z,97740.35
2023-03-15T07:28:45.406Z,97740.20
2023-03-15T07:31:15.252Z,97752.58
2023-03-15T07:33:44.676Z,97758.39
2023-03-15T07:36:14.684Z,97761.33
2023-03-15T07:38:43.835Z,97769.61
2023-03-15T07:41:13.404Z,97776.09
2023-03-15T07:43:43.468Z,97789.31
2023-03-15T07:46:12.829Z,97798.04
2023-03-15T07:48:42.021Z,97797.80
2023-03-15T07:51:11.023Z,97802.60
2023-03-15T07:53:40.288Z,97804.24
2023-03-15T07:56:09.929Z,97816.19
2023-03-15T07:58:38.871Z,97819.60
2023-03-15T08:01:08.105Z,97825.67
2023-03-15T08:03:37.148Z,97829.27
2023-03-15T08:06:06.379Z,97831.05
2023-03-15T08:08:35.718Z,97832.66
2023-03-15T08:11:07.623Z,97834.91
2023-03-15T08:13:37.163Z,97839.70
2023-03-15T08:16:06.421Z,97838.13
2023-03-15T08:18:35.806Z,97833.83
2023-03-15T08:21:05.052Z,97832.34
2023-03-15T08:23:34.416Z,97825.73
2023-03-15T08:26:04.103Z,97828.41
2023-03-15T08:28:33.744Z,97832.30
2023-03-15T08:31:07.559Z,97834.51
2023-03-15T08:33:37.188Z,97841.64
2023-03-15T08:36:07.399Z,97837.00
2023-03-15T08:38:36.554Z,97840.65
2023-03-15T08:41:05.698Z,97840.55
2023-03-15T08:43:34.878Z,97846.10
2023-03-15T08:46:04.462Z,97853.24
2023-03-15T08:48:33.984Z,97853.48
2023-03-15T08:51:05.455Z,97852.77
2023-03-15T08:53:34.410Z,97853.67
2023-03-15T08:56:03.574Z,97854.48
2023-03-15T08:58:32.700Z,97856.70
2023-03-15T09:01:02.210Z,97853.94
2023-03-15T09:03:33.301Z,97855.59
2023-03-15T09:06:03.095Z,97860.08
2023-03-15T09:08:33.865Z,97865.79
2023-03-15T09:11:03.065Z,97865.95
2023-03-15T09:13:32.264Z,97867.89
2023-03-15T09:16:01.566Z,97868.80
2023-03-15T09:18:31.420Z,97868.66
2023-03-15T09:21:00.483Z,97874.41
2023-03-15T09:23:29.900Z,97867.70
2023-03-15T09:25:59.165Z,97869.38
2023-03-15T09:28:28.864Z,97870.89
2023-03-15T09:31:00.222Z,97873.31
2023-03-15T09:33:29.623Z,97877.08
2023-03-15T09:35:58.814Z,97881.88
2023-03-15T09:38:28.149Z,97881.94
2023-03-15T09:41:00.788Z,97886.14
2023-03-15T09:43:42.346Z,97881.74
2023-03-15T09:46:42.601Z,97891.23
2023-03-15T09:49:22.876Z,97905.06
2023-03-15T09:52:15.576Z,97901.70
2023-03-15T09:55:11.728Z,97916.14
2023-03-15T09:57:47.973Z,97915.23
2023-03-15T10:00:34.133Z,97910.29
2023-03-15T10:03:10.519Z,97915.90
2023-03-15T10:05:47.420Z,97910.59
2023-03-15T10:08:20.742Z,97916.33
2023-03-15T10:10:52.833Z,97918.23
2023-03-15T10:13:34.565Z,97923.42
2023-03-15T10:16:10.560Z,97923.50
2023-03-15T10:18:46.270Z,97931.27
2023-03-15T10:21:49.368Z,97934.06
2023-03-15T10:24:32.668Z,97942.41
2023-03-15T10:27:16.686Z,97945.02
2023-03-15T10:29:47.822Z,97947.31
2023-03-15T10:32:19.909Z,97950.77
2023-03-15T10:34:52.737Z,97949.27
2023-03-15T10:37:25.711Z,97952.23
2023-03-15T10:39:59.601Z,97953.11
2023-03-15T10:42:34.286Z,97964.86
2023-03-15T10:45:34.295Z,97968.95
2023-03-15T10:48:03.894Z,97967.29
2023-03-15T10:50:35.618Z,97966.50
2023-03-15T10:53:18.464Z,97966.09
2023-03-15T10:55:47.485Z,97964.23
2023-03-15T10:58:31.864Z,97971.95
2023-03-15T11:01:10.465Z,97968.45
2023-03-15T11:03:41.750Z,97960.77
2023-03-15T11:06:27.815Z,97956.07
2023-03-15T11:09:19.647Z,97959.69
2023-03-15T11:12:03.995Z,97961.11
2023-03-15T11:14:44.298Z,97966.51
2023-03-15T11:17:23.022Z,97962.96
2023-03-15T11:20:00.195Z,97971.93
2023-03-15T11:22:31.004Z,97974.16
2023-03-15T11:25:00.595Z,97981.30
2023-03-15T11:27:30.253Z,97982.61
2023-03-15T11:30:02.110Z,97982.06
2023-03-15T11:32:33.588Z,97991.52
2023-03-15T11:35:07.947Z,98005.95
2023-03-15T11:38:14.621Z,98020.86
2023-03-15T11:40:50.453Z,98030.14
2023-03-15T11:43:26.274Z,98043.52
2023-03-15T11:45:59.521Z,98026.52
2023-03-15T11:48:49.317Z,98038.23
2023-03-15T11:51:18.884Z,98041.80
2023-03-15T11:54:04.421Z,98044.05
2023-03-15T11:56:55.594Z,98048.61
2023-03-15T11:59:33.334Z,98052.63
2023-03-15T12:02:14.601Z,98057.65
2023-03-15T12:04:51.310Z,98069.23
2023-03-15T12:07:20.535Z,98072.98
2023-03-15T12:10:05.530Z,98068.19
2023-03-15T12:12:37.374Z,98061.44
2023-03-15T12:15:15.473Z,98058.05
2023-03-15T12:17:44.488Z,98054.88
2023-03-15T12:20:18.632Z,98051.36
2023-03-15T12:23:15.621Z,98047.27
2023-03-15T12:26:05.682Z,98049.27
2023-03-15T12:29:04.476Z,98061.15
2023-03-15T12:31:53.130Z,98065.94
2023-03-15T12:34:37.759Z,98064.95
2023-03-15T12:37:18.331Z,98058.35
2023-03-15T12:39:59.583Z,98058.80
2023-03-15T12:42:53.112Z,98068.20
2023-03-15T12:45:27.989Z,98058.20
2023-03-15T12:47:59.676Z,98064.85
2023-03-15T12:50:48.443Z,98059.77
2023-03-15T12:53:40.540Z,98057.61
2023-03-15T12:56:33.439Z,98062.23
2023-03-15T12:59:58.778Z,98059.81
2023-03-15T13:02:44.618Z,98056.59
2023-03-15T13:05:23.734Z,98061.31
2023-03-15T13:07:52.891Z,98069.02
2023-03-15T13:10:33.620Z,98072.64
2023-03-15T13:13:31.219Z,98073.85
2023-03-15T13:16:20.407Z,98079.48
2023-03-15T13:19:06.921Z,98076.61
2023-03-15T13:21:43.834Z,98068.41
2023-03-15T13:24:24.668Z,98070.56
2023-03-15T13:27:35.850Z,98075.47
2023-03-15T13:30:31.658Z,98082.15
2023-03-15T13:33:19.267Z,98087.14
2023-03-15T13:35:56.650Z,98084.78
2023-03-15T13:38:32.660Z,98081.66
2023-03-15T13:41:05.183Z,98081.23
2023-03-15T13:43:38.374Z,98085.86
2023-03-15T13:46:08.924Z,98079.68
2023-03-15T13:48:44.380Z,98079.08
2023-03-15T13:51:31.098Z,98077.58
2023-03-15T13:54:15.710Z,98080.23
2023-03-15T13:56:56.689Z,98069.63
2023-03-15T13:59:33.348Z,98074.39
2023-03-15T14:02:06.700Z,98076.96
2023-03-15T14:04:39.355Z,98074.78
2023-03-15T14:07:23.635Z,98080.50
2023-03-15T14:10:20.196Z,98079.34
2023-03-15T14:12:50.430Z,98071.97
2023-03-15T14:15:43.481Z,98071.25
2023-03-15T14:18:18.433Z,98077.88
2023-03-15T14:20:55.210Z,98083.35
2023-03-15T14:23:26.699Z,98091.79
2023-03-15T14:26:03.178Z,98089.80
2023-03-15T14:28:33.971Z,98089.66
2023-03-15T14:31:05.041Z,98089.37
2023-03-15T14:33:41.153Z,98091.69
2023-03-15T14:36:30.074Z,98086.94
2023-03-15T14:39:00.255Z,98089.64
2023-03-15T14:41:31.835Z,98096.53
2023-03-15T14:44:03.958Z,98101.71
2023-03-15T14:46:33.242Z,98109.23
2023-03-15T14:49:02.877Z,98117.09
2023-03-15T14:51:33.616Z,98124.77
2023-03-15T14:54:04.897Z,98126.95
2023-03-15T14:56:37.629Z,98126.14
2023-03-15T14:59:13.744Z,98125.73
2023-03-15T15:01:50.844Z,98134.02
2023-03-15T15:04:23.267Z,98140.93
2023-03-15T15:06:53.749Z,98142.97
2023-03-15T15:09:26.187Z,98142.98
2023-03-15T15:11:57.096Z,98142.14
2023-03-15T15:14:26.714Z,98156.58
2023-03-15T15:16:59.539Z,98155.23
2023-03-15T15:19:29.508Z,98164.67
2023-03-15T15:21:59.628Z,98172.27
2023-03-15T15:24:29.366Z,98177.32
2023-03-15T15:26:59.814Z,98185.45
2023-03-15T15:29:29.407Z,98189.30
2023-03-15T15:31:58.798Z,98197.23
2023-03-15T15:34:29.641Z,98199.63
2023-03-15T15:37:00.599Z,98202.64
2023-03-15T15:39:30.177Z,98208.61
2023-03-15T15:42:00.349Z,98211.34
2023-03-15T15:44:30.650Z,98210.61
2023-03-15T15:47:03.178Z,98209.09
2023-03-15T15:49:32.930Z,98211.71
2023-03-15T15:52:03.180Z,98210.79
2023-03-15T15:54:36.639Z,98211.49
2023-03-15T15:57:08.915Z,98212.63
2023-03-15T15:59:39.657Z,98215.96
2023-03-15T16:02:23.438Z,98220.09
2023-03-15T16:04:53.235Z,98222.70
2023-03-15T16:07:22.401Z,98228.59
2023-03-15T16:09:58.665Z,98229.09
2023-03-15T16:12:28.975Z,98234.45
2023-03-15T16:14:59.141Z,98236.76
2023-03-15T16:17:30.787Z,98242.94
2023-03-15T16:20:00.510Z,98255.92
2023-03-15T16:22:30.453Z,98259.65
2023-03-15T16:25:02.243Z,98259.35
2023-03-15T16:27:31.639Z,98264.20
2023-03-15T16:30:02.848Z,98268.58
2023-03-15T16:32:43.504Z,98275.30
2023-03-15T16:35:18.750Z,98281.88
2023-03-15T16:37:48.977Z,98287.32
2023-03-15T16:40:26.158Z,98290.16
2023-03-15T16:42:57.554Z,98299.75
2023-03-15T16:45:28.345Z,98306.89
2023-03-15T16:47:57.841Z,98308.58
2023-03-15T16:50:29.182Z,98308.17
2023-03-15T16:53:03.906Z,98314.50
2023-03-15T16:55:35.110Z,98319.34
2023-03-15T16:58:19.752Z,98325.45
2023-03-15T17:00:49.759Z,98321.89
2023-03-15T17:03:19.432Z,98329.92
2023-03-15T17:05:49.159Z,98336.44
2023-03-15T17:08:22.037Z,98340.59
2023-03-15T17:10:52.220Z,98346.20
2023-03-15T17:13:28.330Z,98346.31
2023-03-15T17:15:57.775Z,98348.16
2023-03-15T17:18:30.630Z,98351.45
2023-03-15T17:21:00.596Z,98352.51
2023-03-15T17:23:31.720Z,98360.73
2023-03-15T17:26:01.750Z,98362.23
2023-03-15T17:28:31.577Z,98368.28
2023-03-15T17:31:20.288Z,98368.10
2023-03-15T17:33:52.821Z,98374.07
2023-03-15T17:36:26.640Z,98373.05
2023-03-15T17:38:56.758Z,98372.67
2023-03-15T17:41:31.855Z,98371.16
2023-03-15T17:44:02.103Z,98371.33
2023-03-15T17:46:33.561Z,98373.63
2023-03-15T17:49:04.873Z,98372.23
2023-03-15T17:51:37.338Z,98378.95
2023-03-15T17:54:14.708Z,98388.48
2023-03-15T17:56:44.862Z,98397.90
2023-03-15T17:59:15.619Z,98406.16
2023-03-15T18:01:49.196Z,98408.14
2023-03-15T18:04:20.934Z,98412.55
2023-03-15T18:06:50.156Z,98414.52
2023-03-15T18:09:19.710Z,98416.60
2023-03-15T18:11:48.765Z,98417.86
2023-03-15T18:14:19.577Z,98420.23
2023-03-15T18:16:49.460Z,98412.98
2023-03-15T18:19:21.115Z,98415.29
2023-03-15T18:21:51.224Z,98414.08
2023-03-15T18:24:20.514Z,98416.11
2023-03-15T18:26:49.667Z,98423.66
2023-03-15T18:29:19.714Z,98431.64
2023-03-15T18:31:49.848Z,98432.51
2023-03-15T18:34:22.216Z,98435.77
2023-03-15T18:36:51.190Z,98441.67
2023-03-15T18:39:24.804Z,98438.98
2023-03-15T18:41:54.596Z,98447.84
2023-03-15T18:44:23.890Z,98452.91
2023-03-15T18:46:54.671Z,98449.58
2023-03-15T18:49:23.695Z,98455.08
2023-03-15T18:51:56.857Z,98465.44
2023-03-15T18:54:27.077Z,98471.42
2023-03-15T18:56:56.329Z,98482.12
2023-03-15T18:59:25.977Z,98492.58
2023-03-15T19:01:55.349Z,98493.48
2023-03-15T19:04:24.776Z,98500.54
2023-03-15T19:06:53.773Z,98502.95
2023-03-15T19:09:22.737Z,98501.50
2023-03-15T19:11:51.773Z,98503.20
2023-03-15T19:14:21.240Z,98508.90
2023-03-15T19:16:50.599Z,98503.20
2023-03-15T19:19:19.521Z,98507.64
2023-03-15T19:21:49.114Z,98511.52
2023-03-15T19:24:18.679Z,98510.08
2023-03-15T19:26:49.562Z,98505.77
2023-03-15T19:29:19.569Z,98503.47
2023-03-15T19:31:50.051Z,98508.31
2023-03-15T19:34:20.290Z,98510.23
2023-03-15T19:36:50.333Z,98510.30
2023-03-15T19:39:19.458Z,98511.21
2023-03-15T19:41:49.409Z,98518.08
2023-03-15T19:44:19.685Z,98526.43
2023-03-15T19:46:51.335Z,98530.67
2023-03-15T19:49:20.602Z,98532.65
2023-03-15T19:51:50.967Z,98529.95
2023-03-15T19:54:21.796Z,98535.36
2023-03-15T19:56:52.825Z,98535.53
2023-03-15T19:59:22.663Z,98538.38
2023-03-15T20:01:53.350Z,98549.30
2023-03-15T20:04:23.736Z,98554.73
2023-03-15T20:06:53.942Z,98556.88
2023-03-15T20:09:23.339Z,98565.05
2023-03-15T20:11:54.178Z,98572.86
2023-03-15T20:14:28.226Z,98578.46
2023-03-15T20:16:59.815Z,98580.66
2023-03-15T20:19:31.304Z,98587.69
2023-03-15T20:22:01.962Z,98588.91
2023-03-15T20:24:32.824Z,98593.05
2023-03-15T20:27:06.149Z,98599.46
2023-03-15T20:29:36.362Z,98598.10
2023-03-15T20:32:06.528Z,98599.50
2023-03-15T20:34:37.072Z,98606.05
2023-03-15T20:37:09.273Z,98610.92
2023-03-15T20:39:42.367Z,98614.05
2023-03-15T20:42:14.147Z,98615.30
2023-03-15T20:44:46.732Z,98618.34
2023-03-15T20:47:18.313Z,98623.61
2023-03-15T20:49:48.751Z,98627.92
2023-03-15T20:52:19.593Z,98633.19
2023-03-15T20:54:50.891Z,98635.61
2023-03-15T20:57:20.385Z,98633.15
2023-03-15T20:59:50.477Z,98637.67
2023-03-15T21:02:20.551Z,98644.23
2023-03-15T21:04:49.969Z,98641.11
2023-03-15T21:07:20.594Z,98643.00
2023-03-15T21:09:52.260Z,98648.92
2023-03-15T21:12:22.124Z,98650.91
2023-03-15T21:14:53.542Z,98655.57
2023-03-15T21:17:24.918Z,98659.46
2023-03-15T21:19:55.208Z,98660.21
2023-03-15T21:22:25.079Z,98661.75
2023-03-15T21:24:56.402Z,98664.52
2023-03-15T21:27:26.978Z,98665.29
2023-03-15T21:29:56.765Z,98663.36
2023-03-15T21:32:26.585Z,98669.42
2023-03-15T21:34:56.810Z,98667.23
2023-03-15T21:37:27.735Z,98670.92
2023-03-15T21:39:57.361Z,98672.48
2023-03-15T21:42:28.890Z,98673.14
2023-03-15T21:44:58.513Z,98674.67
2023-03-15T21:47:29.441Z,98677.59
2023-03-15T21:50:00.211Z,98681.81
2023-03-15T21:52:30.487Z,98681.77
2023-03-15T21:55:01.067Z,98683.43
2023-03-15T21:57:34.506Z,98688.20
2023-03-15T22:00:07.758Z,98692.30
2023-03-15T22:02:38.196Z,98696.33
2023-03-15T22:05:08.293Z,98700.25
2023-03-15T22:07:42.139Z,98702.70
2023-03-15T22:10:13.534Z,98704.48
2023-03-15T22:12:45.082Z,98706.33
2023-03-15T22:15:16.349Z,98712.46
2023-03-15T22:17:47.598Z,98714.31
2023-03-15T22:20:19.181Z,98719.53
2023-03-15T22:22:50.043Z,98722.54
2023-03-15T22:25:19.349Z,98732.98
2023-03-15T22:27:48.824Z,98732.16
2023-03-15T22:30:19.294Z,98737.07
2023-03-15T22:32:48.362Z,98745.84
2023-03-15T22:35:18.687Z,98749.59
2023-03-15T22:37:49.937Z,98751.48
2023-03-15T22:40:19.337Z,98757.31
2023-03-15T22:42:50.392Z,98762.98
2023-03-15T22:45:22.647Z,98765.58
2023-03-15T22:47:51.789Z,98774.13
2023-03-15T22:50:20.949Z,98773.99
2023-03-15T22:52:52.576Z,98778.23
2023-03-15T22:55:22.865Z,98772.98
2023-03-15T22:57:52.112Z,98772.80
2023-03-15T23:00:22.864Z,98766.55
2023-03-15T23:02:52.970Z,98763.23
2023-03-15T23:05:22.598Z,98766.05
2023-03-15T23:07:51.882Z,98766.74
2023-03-15T23:10:21.554Z,98766.67
2023-03-15T23:12:51.863Z,98777.16
2023-03-15T23:15:21.370Z,98780.50
2023-03-15T23:17:50.372Z,98773.64
2023-03-15T23:20:20.440Z,98773.64
2023-03-15T23:22:50.773Z,98774.63
2023-03-15T23:25:23.005Z,98775.64
2023-03-15T23:27:52.580Z,98776.23
2023-03-15T23:30:22.648Z,98775.04
2023-03-15T23:32:57.939Z,98774.20
2023-03-15T23:35:28.615Z,98771.54
2023-03-15T23:37:58.610Z,98778.86
2023-03-15T23:40:30.478Z,98783.50
2023-03-15T23:42:59.603Z,98791.84
2023-03-15T23:45:31.197Z,98797.34
2023-03-15T23:48:03.436Z,98797.30
2023-03-15T23:50:32.875Z,98798.03
2023-03-15T23:53:02.048Z,98799.42
2023-03-15T23:55:33.797Z,98799.14
2023-03-15T23:58:04.100Z,98796.55
